createdAt,value
2023-03-12T00:02:09.845Z,5.97
2023-03-12T00:04:36.575Z,5.23
2023-03-12T00:07:06.549Z,4.13
2023-03-12T00:09:38.621Z,3.00
2023-03-12T00:12:06.449Z,6.90
2023-03-12T00:14:33.637Z,5.83
2023-03-12T00:17:00.411Z,4.43
2023-03-12T00:19:27.640Z,12.40
2023-03-12T00:21:54.496Z,6.27
2023-03-12T00:24:21.223Z,6.13
2023-03-12T00:26:48.032Z,7.50
2023-03-12T00:29:14.777Z,10.30
2023-03-12T00:31:41.614Z,5.83
2023-03-12T00:34:09.719Z,5.97
2023-03-12T00:36:36.439Z,2.90
2023-03-12T00:39:03.865Z,5.93
2023-03-12T00:41:30.602Z,4.33
2023-03-12T00:43:57.463Z,6.30
2023-03-12T00:46:24.536Z,4.97
2023-03-12T00:48:51.718Z,5.73
2023-03-12T00:51:19.137Z,6.97
2023-03-12T00:53:45.879Z,7.50
2023-03-12T00:56:12.739Z,4.23
2023-03-12T00:58:39.561Z,5.70
2023-03-12T01:01:06.336Z,3.93
2023-03-12T01:03:33.129Z,8.33
2023-03-12T01:06:00.330Z,7.40
2023-03-12T01:08:27.202Z,4.43
2023-03-12T01:10:53.984Z,4.80
2023-03-12T01:13:20.906Z,13.17
2023-03-12T01:15:47.535Z,8.90
2023-03-12T01:18:14.523Z,4.60
2023-03-12T01:20:41.564Z,6.30
2023-03-12T01:23:08.848Z,3.33
2023-03-12T01:25:36.986Z,5.30
2023-03-12T01:28:04.574Z,10.37
2023-03-12T01:30:31.624Z,4.43
2023-03-12T01:32:58.682Z,6.57
2023-03-12T01:35:25.493Z,10.77
2023-03-12T01:37:53.061Z,4.33
2023-03-12T01:40:28.908Z,3.83
2023-03-12T01:42:57.104Z,6.00
2023-03-12T01:46:01.259Z,4.97
2023-03-12T01:48:39.113Z,3.37
2023-03-12T01:51:08.669Z,6.10
2023-03-12T01:53:35.641Z,5.63
2023-03-12T01:56:02.803Z,7.47
2023-03-12T01:58:32.690Z,6.33
2023-03-12T02:01:00.874Z,8.97
2023-03-12T02:03:29.886Z,8.97
2023-03-12T02:06:03.155Z,3.60
2023-03-12T02:08:30.456Z,10.33
2023-03-12T02:10:57.176Z,4.83
2023-03-12T02:13:24.029Z,3.90
2023-03-12T02:15:50.882Z,3.23
2023-03-12T02:18:19.189Z,10.73
2023-03-12T02:21:12.444Z,5.03
2023-03-12T02:23:57.187Z,3.53
2023-03-12T02:26:25.300Z,8.83
2023-03-12T02:28:54.480Z,3.07
2023-03-12T02:31:25.856Z,3.40
2023-03-12T02:33:53.256Z,2.53
2023-03-12T02:36:20.781Z,5.07
2023-03-12T02:38:52.525Z,7.10
2023-03-12T02:41:39.781Z,8.73
2023-03-12T02:44:20.667Z,6.30
2023-03-12T02:46:50.102Z,5.03
2023-03-12T02:49:19.135Z,2.07
2023-03-12T02:51:47.340Z,7.30
2023-03-12T02:54:17.500Z,2.97
2023-03-12T02:56:44.356Z,4.07
2023-03-12T02:59:13.285Z,3.90
2023-03-12T03:01:40.443Z,5.23
2023-03-12T03:04:08.929Z,3.07
2023-03-12T03:06:38.963Z,3.73
2023-03-12T03:09:06.112Z,6.77
2023-03-12T03:11:33.045Z,1.50
2023-03-12T03:13:59.616Z,4.80
2023-03-12T03:16:26.320Z,3.17
2023-03-12T03:18:53.050Z,3.63
2023-03-12T03:21:20.405Z,9.93
2023-03-12T03:23:49.302Z,6.73
2023-03-12T03:26:18.722Z,3.73
2023-03-12T03:28:45.464Z,4.13
2023-03-12T03:31:12.744Z,8.50
2023-03-12T03:33:40.079Z,4.40
2023-03-12T03:36:09.618Z,5.00
2023-03-12T03:38:36.989Z,3.07
2023-03-12T03:41:04.156Z,2.27
2023-03-12T03:43:30.956Z,7.53
2023-03-12T03:46:03.939Z,4.53
2023-03-12T03:48:31.412Z,6.70
2023-03-12T03:51:02.886Z,8.80
2023-03-12T03:53:30.218Z,7.23
2023-03-12T03:55:57.037Z,9.67
2023-03-12T03:58:24.127Z,8.27
2023-03-12T04:00:50.909Z,6.90
2023-03-12T04:03:17.669Z,5.87
2023-03-12T04:05:45.343Z,5.33
2023-03-12T04:08:13.730Z,13.87
2023-03-12T04:10:41.109Z,5.30
2023-03-12T04:13:07.839Z,7.37
2023-03-12T04:15:34.628Z,2.00
2023-03-12T04:18:01.408Z,3.80
2023-03-12T04:20:28.146Z,1.37
2023-03-12T04:22:55.052Z,1.90
2023-03-12T04:25:21.805Z,4.00
2023-03-12T04:27:48.475Z,3.47
2023-03-12T04:30:15.295Z,3.90
2023-03-12T04:32:42.059Z,5.23
2023-03-12T04:35:08.879Z,7.67
2023-03-12T04:37:35.589Z,7.47
2023-03-12T04:40:07.445Z,3.67
2023-03-12T04:42:35.477Z,5.33
2023-03-12T04:45:03.525Z,1.83
2023-03-12T04:47:31.393Z,6.37
2023-03-12T04:49:58.050Z,6.10
2023-03-12T04:52:25.187Z,2.90
2023-03-12T04:54:51.869Z,5.27
2023-03-12T04:57:18.954Z,3.17
2023-03-12T04:59:45.827Z,3.77
2023-03-12T05:02:12.592Z,7.43
2023-03-12T05:04:39.277Z,5.23
2023-03-12T05:07:05.977Z,7.30
2023-03-12T05:09:32.746Z,7.47
2023-03-12T05:11:59.442Z,9.83
2023-03-12T05:14:26.339Z,3.07
2023-03-12T05:16:53.328Z,6.60
2023-03-12T05:19:20.069Z,11.27
2023-03-12T05:21:46.991Z,5.03
2023-03-12T05:24:13.629Z,6.23
2023-03-12T05:26:40.338Z,5.03
2023-03-12T05:29:07.673Z,10.03
2023-03-12T05:31:35.530Z,9.53
2023-03-12T05:34:03.567Z,3.80
2023-03-12T05:36:30.380Z,5.30
2023-03-12T05:38:57.277Z,5.67
2023-03-12T05:41:27.760Z,4.60
2023-03-12T05:43:56.294Z,5.63
2023-03-12T05:46:24.455Z,6.70
2023-03-12T05:48:51.724Z,4.73
2023-03-12T05:51:18.633Z,5.50
2023-03-12T05:53:45.398Z,8.13
2023-03-12T05:56:15.611Z,5.80
2023-03-12T05:58:43.255Z,9.27
2023-03-12T06:01:22.331Z,6.63
2023-03-12T06:03:49.482Z,6.27
2023-03-12T06:06:16.935Z,4.33
2023-03-12T06:08:44.201Z,8.53
2023-03-12T06:11:11.496Z,5.77
2023-03-12T06:13:38.212Z,5.90
2023-03-12T06:16:16.503Z,11.33
2023-03-12T06:18:43.243Z,5.33
2023-03-12T06:21:16.631Z,8.67
2023-03-12T06:23:47.277Z,12.37
2023-03-12T06:26:14.762Z,13.50
2023-03-12T06:28:41.587Z,10.23
2023-03-12T06:31:09.142Z,12.27
2023-03-12T06:33:35.979Z,12.83
2023-03-12T06:36:05.313Z,12.20
2023-03-12T06:38:32.564Z,12.63
2023-03-12T06:41:05.384Z,16.20
2023-03-12T06:43:34.413Z,16.53
2023-03-12T06:46:02.495Z,18.97
2023-03-12T06:48:41.344Z,17.80
2023-03-12T06:51:13.396Z,17.47
2023-03-12T06:53:42.347Z,15.63
2023-03-12T06:56:10.225Z,19.30
2023-03-12T06:58:37.211Z,16.50
2023-03-12T07:01:04.939Z,17.23
2023-03-12T07:03:31.968Z,19.03
2023-03-12T07:05:59.352Z,16.23
2023-03-12T07:08:29.921Z,16.73
2023-03-12T07:11:01.147Z,16.67
2023-03-12T07:13:28.141Z,20.00
2023-03-12T07:15:54.863Z,18.80
2023-03-12T07:18:21.667Z,21.33
2023-03-12T07:20:48.394Z,19.17
2023-03-12T07:23:15.153Z,16.97
2023-03-12T07:25:42.948Z,20.43
2023-03-12T07:28:10.646Z,18.87
2023-03-12T07:30:39.111Z,18.00
2023-03-12T07:33:09.110Z,19.17
2023-03-12T07:35:38.722Z,17.13
2023-03-12T07:38:06.658Z,20.93
2023-03-12T07:40:33.518Z,21.93
2023-03-12T07:43:00.504Z,16.70
2023-03-12T07:45:27.287Z,16.67
2023-03-12T07:47:54.060Z,20.37
2023-03-12T07:50:20.920Z,18.60
2023-03-12T07:52:48.030Z,26.03
2023-03-12T07:55:16.451Z,23.73
2023-03-12T07:57:43.387Z,21.70
2023-03-12T08:00:10.920Z,22.33
2023-03-12T08:02:37.849Z,31.47
2023-03-12T08:05:05.276Z,32.50
2023-03-12T08:07:34.913Z,39.17
2023-03-12T08:10:03.055Z,36.73
2023-03-12T08:12:29.795Z,34.10
2023-03-12T08:14:56.474Z,38.07
2023-03-12T08:17:23.456Z,39.87
2023-03-12T08:19:50.187Z,41.50
2023-03-12T08:22:17.086Z,43.50
2023-03-12T08:24:44.136Z,38.43
2023-03-12T08:27:12.322Z,34.00
2023-03-12T08:29:39.895Z,35.70
2023-03-12T08:32:07.362Z,35.10
2023-03-12T08:34:35.247Z,34.53
2023-03-12T08:37:02.963Z,31.03
2023-03-12T08:39:30.225Z,19.70
2023-03-12T08:41:56.904Z,23.47
2023-03-12T08:44:24.097Z,26.47
2023-03-12T08:46:53.061Z,28.93
2023-03-12T08:49:20.925Z,23.63
2023-03-12T08:51:47.697Z,21.47
2023-03-12T08:54:14.375Z,21.00
2023-03-12T08:56:44.348Z,22.97
2023-03-12T08:59:13.242Z,23.17
2023-03-12T09:01:43.444Z,30.77
2023-03-12T09:04:10.850Z,30.17
2023-03-12T09:06:38.554Z,29.50
2023-03-12T09:09:05.917Z,24.20
2023-03-12T09:11:33.952Z,27.93
2023-03-12T09:14:46.342Z,25.93
2023-03-12T09:16:48.770Z,26.73
2023-03-12T09:19:16.301Z,21.20
2023-03-12T09:21:43.097Z,21.60
2023-03-12T09:24:11.251Z,24.40
2023-03-12T09:26:37.906Z,22.77
2023-03-12T09:29:04.559Z,19.27
2023-03-12T09:31:31.708Z,22.10
2023-03-12T09:34:00.449Z,22.13
2023-03-12T09:36:27.104Z,19.30
2023-03-12T09:38:54.839Z,22.03
2023-03-12T09:41:26.256Z,22.17
2023-03-12T09:44:07.563Z,21.03
2023-03-12T09:46:44.101Z,22.23
2023-03-12T09:49:38.203Z,20.83
2023-03-12T09:52:22.486Z,22.80
2023-03-12T09:55:22.107Z,21.33
2023-03-12T09:57:51.440Z,21.50
2023-03-12T10:00:23.030Z,23.90
2023-03-12T10:03:22.481Z,28.63
2023-03-12T10:06:20.114Z,23.27
2023-03-12T10:08:53.642Z,23.53
2023-03-12T10:11:47.704Z,28.67
2023-03-12T10:14:32.622Z,31.80
2023-03-12T10:17:14.551Z,30.87
2023-03-12T10:20:23.619Z,25.50
2023-03-12T10:22:56.361Z,26.50
2023-03-12T10:25:35.396Z,32.40
2023-03-12T10:28:25.753Z,23.13
2023-03-12T10:30:58.026Z,21.67
2023-03-12T10:33:38.401Z,26.27
2023-03-12T10:36:21.230Z,31.93
2023-03-12T10:38:49.417Z,29.13
2023-03-12T10:41:23.206Z,27.47
2023-03-12T10:43:50.156Z,26.07
2023-03-12T10:46:51.538Z,24.43
2023-03-12T10:49:23.915Z,27.67
2023-03-12T10:52:00.702Z,25.07
2023-03-12T10:54:29.190Z,24.23
2023-03-12T10:56:55.959Z,26.53
2023-03-12T10:59:25.700Z,23.93
2023-03-12T11:01:53.012Z,23.07
2023-03-12T11:04:31.651Z,24.80
2023-03-12T11:07:15.747Z,23.33
2023-03-12T11:09:42.505Z,22.93
2023-03-12T11:12:30.917Z,30.10
2023-03-12T11:14:59.040Z,22.00
2023-03-12T11:17:28.272Z,24.40
2023-03-12T11:19:55.169Z,18.03
2023-03-12T11:22:51.205Z,20.30
2023-03-12T11:25:28.130Z,21.43
2023-03-12T11:28:03.184Z,18.60
2023-03-12T11:30:37.087Z,15.53
2023-03-12T11:33:04.813Z,21.43
2023-03-12T11:35:42.092Z,25.63
2023-03-12T11:38:17.870Z,19.57
2023-03-12T11:41:20.141Z,22.57
2023-03-12T11:44:05.102Z,22.53
2023-03-12T11:46:34.644Z,18.57
2023-03-12T11:49:20.188Z,18.20
2023-03-12T11:52:10.667Z,20.10
2023-03-12T11:54:59.705Z,16.80
2023-03-12T11:58:10.992Z,15.43
2023-03-12T12:01:09.754Z,17.10
2023-03-12T12:03:45.813Z,14.97
2023-03-12T12:06:40.449Z,12.40
2023-03-12T12:09:16.119Z,11.97
2023-03-12T12:11:45.715Z,12.30
2023-03-12T12:14:50.918Z,7.87
2023-03-12T12:17:17.486Z,6.37
2023-03-12T12:19:53.471Z,10.50
2023-03-12T12:22:46.296Z,7.37
2023-03-12T12:25:21.592Z,8.37
2023-03-12T12:27:57.930Z,17.87
2023-03-12T12:30:51.685Z,9.30
2023-03-12T12:33:30.793Z,12.67
2023-03-12T12:35:57.579Z,15.40
2023-03-12T12:38:33.174Z,10.73
2023-03-12T12:41:30.665Z,14.83
2023-03-12T12:44:13.988Z,13.83
2023-03-12T12:46:47.648Z,13.77
2023-03-12T12:49:34.223Z,13.87
2023-03-12T12:52:05.270Z,8.93
2023-03-12T12:54:53.217Z,12.27
2023-03-12T12:57:29.396Z,8.83
2023-03-12T13:00:14.628Z,10.47
2023-03-12T13:02:44.656Z,9.93
2023-03-12T13:05:26.247Z,8.80
2023-03-12T13:07:53.315Z,10.00
2023-03-12T13:10:57.447Z,9.77
2023-03-12T13:13:27.200Z,9.77
2023-03-12T13:16:29.054Z,10.20
2023-03-12T13:19:01.400Z,10.30
2023-03-12T13:21:36.218Z,9.83
2023-03-12T13:24:18.541Z,12.70
2023-03-12T13:27:17.991Z,8.10
2023-03-12T13:29:44.791Z,10.63
2023-03-12T13:32:36.403Z,9.57
2023-03-12T13:35:18.307Z,7.33
2023-03-12T13:37:54.006Z,12.73
2023-03-12T13:40:29.494Z,8.87
2023-03-12T13:43:08.272Z,9.17
2023-03-12T13:46:03.919Z,7.27
2023-03-12T13:48:34.573Z,11.33
2023-03-12T13:51:19.871Z,7.37
2023-03-12T13:53:55.656Z,12.67
2023-03-12T13:56:29.206Z,7.50
2023-03-12T13:59:07.510Z,9.33
2023-03-12T14:01:49.819Z,9.13
2023-03-12T14:04:23.699Z,7.43
2023-03-12T14:07:29.177Z,8.50
2023-03-12T14:10:53.638Z,7.47
2023-03-12T14:13:35.662Z,12.03
2023-03-12T14:16:19.370Z,11.27
2023-03-12T14:18:47.302Z,16.23
2023-03-12T14:21:16.603Z,5.93
2023-03-12T14:23:52.807Z,5.60
2023-03-12T14:26:31.527Z,7.07
2023-03-12T14:29:20.725Z,10.00
2023-03-12T14:31:55.026Z,7.93
2023-03-12T14:34:24.097Z,10.50
2023-03-12T14:37:00.964Z,6.40
2023-03-12T14:39:43.412Z,9.17
2023-03-12T14:42:10.652Z,10.20
2023-03-12T14:44:39.623Z,7.67
2023-03-12T14:47:11.850Z,10.53
2023-03-12T14:49:46.672Z,8.53
2023-03-12T14:52:15.156Z,7.63
2023-03-12T14:54:53.831Z,12.87
2023-03-12T14:57:20.893Z,9.57
2023-03-12T15:00:01.505Z,10.20
2023-03-12T15:02:30.805Z,10.83
2023-03-12T15:05:00.685Z,10.17
2023-03-12T15:07:33.130Z,8.63
2023-03-12T15:10:00.403Z,10.07
2023-03-12T15:12:32.646Z,12.47
2023-03-12T15:15:08.319Z,7.57
2023-03-12T15:17:35.925Z,10.33
2023-03-12T15:20:09.466Z,10.80
2023-03-12T15:22:38.339Z,9.10
2023-03-12T15:25:25.315Z,9.67
2023-03-12T15:28:15.118Z,10.57
2023-03-12T15:30:44.120Z,8.30
2023-03-12T15:33:17.835Z,8.97
2023-03-12T15:36:07.547Z,10.97
2023-03-12T15:38:38.305Z,8.30
2023-03-12T15:41:09.929Z,8.27
2023-03-12T15:43:37.699Z,4.37
2023-03-12T15:46:06.174Z,6.43
2023-03-12T15:48:41.266Z,7.77
2023-03-12T15:51:26.142Z,6.40
2023-03-12T15:54:00.949Z,6.57
2023-03-12T15:56:30.378Z,8.13
2023-03-12T15:59:04.274Z,5.13
2023-03-12T16:01:44.491Z,7.43
2023-03-12T16:04:11.467Z,4.77
2023-03-12T16:06:38.187Z,4.80
2023-03-12T16:09:06.168Z,8.37
2023-03-12T16:11:35.690Z,8.50
2023-03-12T16:14:17.072Z,13.87
2023-03-12T16:16:43.931Z,14.03
2023-03-12T16:19:22.461Z,8.47
2023-03-12T16:21:50.046Z,8.17
2023-03-12T16:24:17.031Z,6.37
2023-03-12T16:26:49.552Z,6.50
2023-03-12T16:29:18.497Z,11.50
2023-03-12T16:31:50.999Z,7.47
2023-03-12T16:34:17.780Z,8.23
2023-03-12T16:36:44.390Z,5.90
2023-03-12T16:39:11.418Z,11.90
2023-03-12T16:41:38.515Z,7.90
2023-03-12T16:44:08.163Z,5.17
2023-03-12T16:46:34.994Z,8.27
2023-03-12T16:49:02.029Z,6.80
2023-03-12T16:51:28.724Z,6.93
2023-03-12T16:54:08.484Z,7.77
2023-03-12T16:56:41.120Z,8.87
2023-03-12T16:59:15.992Z,8.00
2023-03-12T17:01:42.760Z,6.37
2023-03-12T17:04:12.566Z,6.33
2023-03-12T17:06:40.451Z,6.40
2023-03-12T17:09:08.470Z,6.90
2023-03-12T17:11:38.014Z,6.20
2023-03-12T17:14:16.515Z,6.13
2023-03-12T17:16:43.194Z,8.00
2023-03-12T17:19:09.865Z,9.37
2023-03-12T17:21:37.770Z,8.17
2023-03-12T17:24:04.749Z,8.27
2023-03-12T17:26:31.510Z,7.47
2023-03-12T17:28:58.251Z,8.70
2023-03-12T17:31:25.074Z,9.53
2023-03-12T17:33:51.889Z,7.57
2023-03-12T17:36:18.654Z,7.23
2023-03-12T17:38:45.346Z,4.43
2023-03-12T17:41:25.618Z,6.73
2023-03-12T17:43:53.556Z,6.43
2023-03-12T17:46:20.289Z,8.73
2023-03-12T17:48:47.071Z,7.13
2023-03-12T17:51:13.850Z,8.03
2023-03-12T17:53:41.988Z,9.30
2023-03-12T17:56:09.288Z,8.10
2023-03-12T17:58:36.014Z,9.07
2023-03-12T18:01:02.682Z,8.33
2023-03-12T18:03:29.483Z,8.80
2023-03-12T18:05:56.409Z,9.03
2023-03-12T18:08:23.122Z,11.23
2023-03-12T18:10:49.962Z,11.77
2023-03-12T18:13:16.722Z,12.23
2023-03-12T18:15:43.470Z,10.80
2023-03-12T18:18:10.146Z,12.03
2023-03-12T18:20:39.506Z,12.43
2023-03-12T18:23:06.999Z,16.20
2023-03-12T18:25:33.694Z,13.93
2023-03-12T18:28:00.559Z,22.00
2023-03-12T18:30:28.505Z,22.10
2023-03-12T18:32:55.309Z,21.60
2023-03-12T18:35:22.807Z,19.60
2023-03-12T18:37:52.438Z,16.30
2023-03-12T18:40:19.878Z,18.53
2023-03-12T18:42:46.966Z,17.27
2023-03-12T18:45:13.657Z,19.00
2023-03-12T18:47:40.428Z,20.13
2023-03-12T18:50:08.331Z,19.40
2023-03-12T18:52:35.723Z,20.77
2023-03-12T18:55:02.893Z,20.37
2023-03-12T18:57:29.688Z,21.43
2023-03-12T18:59:57.247Z,23.17
2023-03-12T19:02:24.149Z,21.70
2023-03-12T19:04:51.402Z,20.87
2023-03-12T19:07:19.786Z,21.77
2023-03-12T19:09:47.094Z,21.37
2023-03-12T19:12:14.737Z,23.20
2023-03-12T19:14:41.593Z,23.00
2023-03-12T19:17:08.538Z,23.53
2023-03-12T19:19:35.316Z,27.67
2023-03-12T19:22:02.192Z,23.27
2023-03-12T19:24:29.085Z,23.37
2023-03-12T19:26:56.296Z,23.97
2023-03-12T19:29:24.650Z,28.50
2023-03-12T19:31:51.342Z,25.33
2023-03-12T19:34:19.278Z,25.23
2023-03-12T19:36:45.948Z,28.23
2023-03-12T19:39:21.120Z,26.87
2023-03-12T19:41:49.595Z,29.83
2023-03-12T19:44:16.502Z,29.07
2023-03-12T19:46:43.507Z,33.00
2023-03-12T19:49:10.772Z,31.07
2023-03-12T19:51:42.189Z,30.87
2023-03-12T19:54:10.793Z,43.10
2023-03-12T19:56:38.112Z,34.77
2023-03-12T19:59:05.192Z,39.13
2023-03-12T20:01:32.559Z,35.27
2023-03-12T20:03:59.630Z,41.13
2023-03-12T20:06:27.444Z,34.20
2023-03-12T20:08:59.161Z,35.87
2023-03-12T20:11:26.134Z,41.90
2023-03-12T20:13:53.434Z,40.70
2023-03-12T20:16:21.601Z,44.30
2023-03-12T20:18:48.852Z,41.00
2023-03-12T20:21:16.006Z,37.63
2023-03-12T20:23:49.225Z,41.73
2023-03-12T20:26:16.400Z,46.03
2023-03-12T20:28:43.496Z,38.10
2023-03-12T20:31:12.695Z,39.87
2023-03-12T20:33:41.367Z,42.33
2023-03-12T20:36:10.336Z,37.27
2023-03-12T20:38:37.655Z,43.90
2023-03-12T20:41:05.590Z,38.77
2023-03-12T20:43:32.897Z,56.03
2023-03-12T20:45:59.985Z,40.97
2023-03-12T20:48:27.108Z,50.17
2023-03-12T20:50:54.080Z,42.80
2023-03-12T20:53:21.084Z,47.77
2023-03-12T20:55:49.092Z,51.97
2023-03-12T20:58:16.053Z,53.87
2023-03-12T21:00:44.421Z,52.80
2023-03-12T21:03:15.853Z,42.67
2023-03-12T21:05:43.198Z,50.87
2023-03-12T21:08:10.171Z,44.57
2023-03-12T21:10:38.581Z,58.67
2023-03-12T21:13:05.395Z,47.33
2023-03-12T21:15:32.311Z,53.20
2023-03-12T21:17:59.310Z,53.37
2023-03-12T21:20:26.076Z,51.23
2023-03-12T21:22:52.907Z,49.47
2023-03-12T21:25:19.801Z,44.23
2023-03-12T21:27:51.067Z,52.77
2023-03-12T21:30:19.229Z,69.03
2023-03-12T21:32:45.895Z,39.80
2023-03-12T21:35:12.568Z,48.47
2023-03-12T21:37:39.589Z,54.63
2023-03-12T21:40:07.869Z,50.63
2023-03-12T21:42:34.713Z,53.60
2023-03-12T21:45:01.369Z,67.50
2023-03-12T21:47:28.126Z,53.13
2023-03-12T21:49:58.764Z,45.10
2023-03-12T21:52:25.424Z,58.67
2023-03-12T21:54:52.074Z,63.03
2023-03-12T21:57:18.674Z,57.13
2023-03-12T21:59:45.324Z,58.50
2023-03-12T22:02:13.788Z,63.47
2023-03-12T22:04:40.507Z,41.10
2023-03-12T22:07:07.789Z,43.57
2023-03-12T22:09:34.615Z,56.83
2023-03-12T22:12:01.827Z,66.80
2023-03-12T22:14:28.902Z,68.87
2023-03-12T22:16:55.537Z,48.33
2023-03-12T22:19:22.278Z,59.83
2023-03-12T22:21:48.981Z,57.53
2023-03-12T22:24:16.031Z,49.50
2023-03-12T22:26:42.811Z,57.80
2023-03-12T22:29:09.720Z,50.23
2023-03-12T22:31:36.528Z,57.40
2023-03-12T22:34:03.325Z,47.87
2023-03-12T22:36:30.044Z,62.97
2023-03-12T22:38:57.702Z,52.47
2023-03-12T22:41:26.702Z,37.00
2023-03-12T22:43:55.962Z,55.63
2023-03-12T22:46:25.022Z,53.77
2023-03-12T22:48:54.215Z,54.63
2023-03-12T22:51:20.957Z,55.50
2023-03-12T22:53:47.609Z,44.67
2023-03-12T22:56:14.748Z,50.73
2023-03-12T22:58:41.532Z,75.27
2023-03-12T23:01:14.121Z,57.67
2023-03-12T23:03:42.903Z,60.43
2023-03-12T23:06:20.733Z,50.23
2023-03-12T23:08:48.129Z,59.33
2023-03-12T23:11:16.774Z,48.73
2023-03-12T23:13:44.716Z,51.67
2023-03-12T23:16:14.784Z,49.77
2023-03-12T23:18:42.902Z,66.80
2023-03-12T23:21:12.469Z,54.10
2023-03-12T23:23:41.203Z,53.13
2023-03-12T23:26:08.034Z,46.53
2023-03-12T23:28:34.718Z,51.17
2023-03-12T23:31:04.897Z,51.97
2023-03-12T23:33:33.235Z,45.60
2023-03-12T23:36:02.304Z,53.70
2023-03-12T23:38:29.748Z,49.97
2023-03-12T23:41:08.838Z,51.60
2023-03-12T23:43:35.566Z,46.87
2023-03-12T23:46:04.622Z,56.63
2023-03-12T23:48:32.812Z,40.57
2023-03-12T23:51:08.034Z,55.00
2023-03-12T23:53:35.857Z,42.93
2023-03-12T23:56:04.746Z,49.60
2023-03-12T23:58:31.520Z,44.13
